Terminal Aerodrome Forecast
Issued by NWS Wilmington, OH

Current Version | Previous Version | Text Only | Print | Product List | Glossary Off
Versions: 1 2 3 4 5 6 7 8 9 10 11 12 13 14 15 16 17 18 19 20 21 22 23 24 25 26 27 28 29 30 31 32

717
FTUS41 KILN 201858 AAA
TAFCVG
TAF AMD
KCVG 201858Z 2019/2124 23008KT P6SM SCT025 OVC035
     FM210400 17004KT P6SM BKN025
     FM210700 17005KT P6SM OVC015
     FM210900 18005KT 5SM BR OVC007
     FM211500 18007KT P6SM BKN012
     FM211800 19009KT P6SM VCSH BKN035=

USA.gov is the U.S. government's official web portal to all federal, state and local government web resources and services.